Aeroporto :
LOGIN :

Iscrizione | Disclaimer

   EN    FR    IT 

 










Sommario :    VFR   VFR Marginale   IFR   IFR Intensivo   IFR Molto Intensivo
Visibilità : 
Base nubi : 
>= 8 km
>= 3000ft
5 / 8 km
1000 / 3000 ft
1500m / 5 km
500 / 1000 ft
800 / 1500m
200 / 500 ft
< 800m
< 200 ft
Simboli :   Temporali  Nebbia  Neve Forte  Precipitazioni Forti  Vento > 20 kt
SIGMETs :   Varie  Temporali  Ghiacco  Turbolenza  Onda orograficha  Ceneri Vulcaniche






- Altitudine del aeroporto : 2555 ft
- Codice IATA : ADJ


OJAM - Marka Int.

ULTIMO METAR :
  • 041800Z 00000KT CAVOK 19/05 Q1018 NOSIG

METARs OBSOLETI :
  • 041700Z 00000KT CAVOK 20/05 Q1018 NOSIG
  • 041600Z 00000KT CAVOK 22/05 Q1017 NOSIG

TAF TAF OJAM
Valido dal 04 a 18 ore il 06 a 00 ore UTC


041637Z 0418/0524 09006KT 6000 NSC
TEMPO 0503/0518 13016KT 3000 BLDU



MetMap, La meteo Aeronautica in un colpo d'occhio ! - Copyright ORBIFLY Dicembre 2007 - Disclaimer

ORBIFLY MET'MAP TEAM :

Programmazione e sviluppo : Alexandra Zaïnal
Concezione : Baudouin d'Aumeries
Aiuto per la programmazione : Marc-Olivier Méhu
Supporto tecnico e logistico : Manuel Goepfert
Aiuto per la traduzione : Arnaldo La Scala

Contatto : metmap@orbifly.com




FONTI E CREDITI :

   NOAA